sensor_id;sensor_type;location;lat;lon;timestamp;P1;durP1;ratioP1;P2;durP2;ratioP2
3274;SDS011;1649;53.672;10.064;2022-08-14T00:02:13;9.90;;;6.20;;
3274;SDS011;1649;53.672;10.064;2022-08-14T00:04:39;8.07;;;6.23;;
3274;SDS011;1649;53.672;10.064;2022-08-14T00:07:05;9.40;;;6.10;;
3274;SDS011;1649;53.672;10.064;2022-08-14T00:09:30;9.93;;;6.00;;
3274;SDS011;1649;53.672;10.064;2022-08-14T00:11:56;11.23;;;6.27;;
3274;SDS011;1649;53.672;10.064;2022-08-14T00:14:22;8.43;;;6.20;;
3274;SDS011;1649;53.672;10.064;2022-08-14T00:16:49;8.30;;;6.17;;
3274;SDS011;1649;53.672;10.064;2022-08-14T00:19:16;10.90;;;6.50;;
3274;SDS011;1649;53.672;10.064;2022-08-14T00:21:42;9.10;;;6.27;;
3274;SDS011;1649;53.672;10.064;2022-08-14T00:24:07;9.50;;;6.50;;
3274;SDS011;1649;53.672;10.064;2022-08-14T00:26:33;10.13;;;6.70;;
3274;SDS011;1649;53.672;10.064;2022-08-14T00:28:58;9.40;;;6.40;;
3274;SDS011;1649;53.672;10.064;2022-08-14T00:31:24;9.20;;;6.60;;
3274;SDS011;1649;53.672;10.064;2022-08-14T00:33:49;11.20;;;6.73;;
3274;SDS011;1649;53.672;10.064;2022-08-14T00:36:15;9.70;;;6.17;;
3274;SDS011;1649;53.672;10.064;2022-08-14T00:38:41;7.20;;;5.83;;
3274;SDS011;1649;53.672;10.064;2022-08-14T00:41:07;10.80;;;6.37;;
3274;SDS011;1649;53.672;10.064;2022-08-14T00:43:33;8.83;;;6.93;;
3274;SDS011;1649;53.672;10.064;2022-08-14T00:46:00;9.37;;;6.97;;
3274;SDS011;1649;53.672;10.064;2022-08-14T00:48:33;8.07;;;6.77;;
3274;SDS011;1649;53.672;10.064;2022-08-14T00:51:00;8.53;;;6.20;;
3274;SDS011;1649;53.672;10.064;2022-08-14T00:53:26;7.30;;;6.13;;
3274;SDS011;1649;53.672;10.064;2022-08-14T00:55:52;8.57;;;5.97;;
3274;SDS011;1649;53.672;10.064;2022-08-14T00:58:20;7.70;;;6.30;;
3274;SDS011;1649;53.672;10.064;2022-08-14T01:00:56;6.97;;;6.20;;
3274;SDS011;1649;53.672;10.064;2022-08-14T01:03:26;9.33;;;7.00;;
3274;SDS011;1649;53.672;10.064;2022-08-14T01:05:53;8.57;;;6.33;;
3274;SDS011;1649;53.672;10.064;2022-08-14T01:08:20;10.27;;;6.23;;
3274;SDS011;1649;53.672;10.064;2022-08-14T01:10:50;9.23;;;6.30;;
3274;SDS011;1649;53.672;10.064;2022-08-14T01:13:19;9.73;;;5.60;;
3274;SDS011;1649;53.672;10.064;2022-08-14T01:15:48;8.57;;;6.20;;
3274;SDS011;1649;53.672;10.064;2022-08-14T01:18:18;7.50;;;6.30;;
3274;SDS011;1649;53.672;10.064;2022-08-14T01:21:04;8.47;;;6.30;;
3274;SDS011;1649;53.672;10.064;2022-08-14T01:23:33;8.33;;;6.37;;
3274;SDS011;1649;53.672;10.064;2022-08-14T01:26:00;7.03;;;6.23;;
3274;SDS011;1649;53.672;10.064;2022-08-14T01:28:26;8.27;;;6.20;;
3274;SDS011;1649;53.672;10.064;2022-08-14T01:30:55;8.33;;;6.30;;
3274;SDS011;1649;53.672;10.064;2022-08-14T01:33:25;10.40;;;6.37;;
3274;SDS011;1649;53.672;10.064;2022-08-14T01:35:55;8.63;;;6.60;;
3274;SDS011;1649;53.672;10.064;2022-08-14T01:38:23;7.50;;;5.93;;
3274;SDS011;1649;53.672;10.064;2022-08-14T01:40:50;9.17;;;6.30;;
3274;SDS011;1649;53.672;10.064;2022-08-14T01:43:16;9.07;;;6.50;;
3274;SDS011;1649;53.672;10.064;2022-08-14T01:45:43;7.37;;;5.97;;
3274;SDS011;1649;53.672;10.064;2022-08-14T01:48:10;10.03;;;6.57;;
3274;SDS011;1649;53.672;10.064;2022-08-14T01:50:36;11.93;;;6.00;;
3274;SDS011;1649;53.672;10.064;2022-08-14T01:53:01;7.67;;;6.23;;
3274;SDS011;1649;53.672;10.064;2022-08-14T01:55:27;7.20;;;6.23;;
3274;SDS011;1649;53.672;10.064;2022-08-14T01:57:56;8.40;;;6.70;;
3274;SDS011;1649;53.672;10.064;2022-08-14T02:00:22;8.73;;;6.37;;
3274;SDS011;1649;53.672;10.064;2022-08-14T02:02:48;9.40;;;6.33;;
3274;SDS011;1649;53.672;10.064;2022-08-14T02:05:14;7.20;;;5.70;;
3274;SDS011;1649;53.672;10.064;2022-08-14T02:07:40;9.27;;;6.60;;
3274;SDS011;1649;53.672;10.064;2022-08-14T02:10:07;10.37;;;6.10;;
3274;SDS011;1649;53.672;10.064;2022-08-14T02:12:34;7.03;;;5.60;;
3274;SDS011;1649;53.672;10.064;2022-08-14T02:15:00;9.10;;;6.50;;
3274;SDS011;1649;53.672;10.064;2022-08-14T02:17:26;8.33;;;5.70;;
3274;SDS011;1649;53.672;10.064;2022-08-14T02:19:53;7.23;;;5.90;;
3274;SDS011;1649;53.672;10.064;2022-08-14T02:22:19;12.07;;;6.37;;
3274;SDS011;1649;53.672;10.064;2022-08-14T02:24:45;7.60;;;5.80;;
3274;SDS011;1649;53.672;10.064;2022-08-14T02:27:10;8.97;;;6.27;;
3274;SDS011;1649;53.672;10.064;2022-08-14T02:29:36;8.57;;;6.43;;
3274;SDS011;1649;53.672;10.064;2022-08-14T02:32:02;8.90;;;5.97;;
3274;SDS011;1649;53.672;10.064;2022-08-14T02:34:34;7.83;;;6.03;;
3274;SDS011;1649;53.672;10.064;2022-08-14T02:37:01;10.50;;;6.80;;
3274;SDS011;1649;53.672;10.064;2022-08-14T02:39:34;8.73;;;5.90;;
3274;SDS011;1649;53.672;10.064;2022-08-14T02:42:02;10.27;;;6.77;;
3274;SDS011;1649;53.672;10.064;2022-08-14T02:44:28;8.00;;;6.10;;
3274;SDS011;1649;53.672;10.064;2022-08-14T02:46:54;8.33;;;6.60;;
3274;SDS011;1649;53.672;10.064;2022-08-14T02:49:21;8.30;;;6.43;;
3274;SDS011;1649;53.672;10.064;2022-08-14T02:51:50;10.37;;;6.37;;
3274;SDS011;1649;53.672;10.064;2022-08-14T02:54:16;10.03;;;5.80;;
3274;SDS011;1649;53.672;10.064;2022-08-14T02:56:41;9.10;;;5.70;;
3274;SDS011;1649;53.672;10.064;2022-08-14T02:59:07;7.70;;;6.27;;
3274;SDS011;1649;53.672;10.064;2022-08-14T03:01:34;8.33;;;6.43;;
3274;SDS011;1649;53.672;10.064;2022-08-14T03:04:00;7.23;;;5.90;;
3274;SDS011;1649;53.672;10.064;2022-08-14T03:06:29;9.60;;;6.30;;
3274;SDS011;1649;53.672;10.064;2022-08-14T03:08:54;7.80;;;6.93;;
3274;SDS011;1649;53.672;10.064;2022-08-14T03:11:20;10.87;;;7.00;;
3274;SDS011;1649;53.672;10.064;2022-08-14T03:13:47;8.40;;;6.67;;
3274;SDS011;1649;53.672;10.064;2022-08-14T03:16:21;9.10;;;6.80;;
3274;SDS011;1649;53.672;10.064;2022-08-14T03:18:49;8.30;;;6.40;;
3274;SDS011;1649;53.672;10.064;2022-08-14T03:21:24;10.73;;;6.93;;
3274;SDS011;1649;53.672;10.064;2022-08-14T03:23:51;9.00;;;6.83;;
3274;SDS011;1649;53.672;10.064;2022-08-14T03:26:29;8.30;;;6.60;;
3274;SDS011;1649;53.672;10.064;2022-08-14T03:28:55;10.03;;;6.50;;
3274;SDS011;1649;53.672;10.064;2022-08-14T03:31:20;8.33;;;6.60;;
3274;SDS011;1649;53.672;10.064;2022-08-14T03:33:47;8.50;;;6.50;;
3274;SDS011;1649;53.672;10.064;2022-08-14T03:36:16;7.43;;;6.20;;
3274;SDS011;1649;53.672;10.064;2022-08-14T03:38:45;9.70;;;6.80;;
3274;SDS011;1649;53.672;10.064;2022-08-14T03:41:14;8.73;;;6.40;;
3274;SDS011;1649;53.672;10.064;2022-08-14T03:43:41;7.40;;;5.97;;
3274;SDS011;1649;53.672;10.064;2022-08-14T03:46:11;8.90;;;6.90;;
3274;SDS011;1649;53.672;10.064;2022-08-14T03:48:37;9.37;;;6.53;;
3274;SDS011;1649;53.672;10.064;2022-08-14T03:51:04;7.40;;;6.50;;
3274;SDS011;1649;53.672;10.064;2022-08-14T03:53:32;7.20;;;6.43;;
3274;SDS011;1649;53.672;10.064;2022-08-14T03:56:00;8.43;;;6.87;;
3274;SDS011;1649;53.672;10.064;2022-08-14T03:58:25;8.17;;;5.90;;
3274;SDS011;1649;53.672;10.064;2022-08-14T04:00:54;11.20;;;6.80;;
3274;SDS011;1649;53.672;10.064;2022-08-14T04:03:19;8.90;;;6.93;;
3274;SDS011;1649;53.672;10.064;2022-08-14T04:05:48;7.70;;;6.20;;
3274;SDS011;1649;53.672;10.064;2022-08-14T04:08:14;10.10;;;6.47;;
3274;SDS011;1649;53.672;10.064;2022-08-14T04:10:40;8.97;;;7.30;;
3274;SDS011;1649;53.672;10.064;2022-08-14T04:13:06;7.63;;;6.30;;
3274;SDS011;1649;53.672;10.064;2022-08-14T04:15:32;10.40;;;6.57;;
3274;SDS011;1649;53.672;10.064;2022-08-14T04:18:01;8.23;;;6.83;;
3274;SDS011;1649;53.672;10.064;2022-08-14T04:20:30;9.57;;;6.30;;
3274;SDS011;1649;53.672;10.064;2022-08-14T04:22:56;11.33;;;7.37;;
3274;SDS011;1649;53.672;10.064;2022-08-14T04:25:21;7.67;;;6.50;;
3274;SDS011;1649;53.672;10.064;2022-08-14T04:27:48;9.03;;;6.80;;
3274;SDS011;1649;53.672;10.064;2022-08-14T04:30:14;9.47;;;7.83;;
3274;SDS011;1649;53.672;10.064;2022-08-14T04:32:40;9.60;;;6.50;;
3274;SDS011;1649;53.672;10.064;2022-08-14T04:35:06;7.80;;;6.60;;
3274;SDS011;1649;53.672;10.064;2022-08-14T04:37:32;9.17;;;6.70;;
3274;SDS011;1649;53.672;10.064;2022-08-14T04:40:16;8.00;;;6.33;;
3274;SDS011;1649;53.672;10.064;2022-08-14T04:43:00;9.27;;;6.40;;
3274;SDS011;1649;53.672;10.064;2022-08-14T04:45:44;12.43;;;6.40;;
3274;SDS011;1649;53.672;10.064;2022-08-14T04:48:10;7.60;;;6.10;;
3274;SDS011;1649;53.672;10.064;2022-08-14T04:50:39;8.20;;;6.73;;
3274;SDS011;1649;53.672;10.064;2022-08-14T04:53:06;10.07;;;6.17;;
3274;SDS011;1649;53.672;10.064;2022-08-14T04:55:32;9.63;;;6.60;;
3274;SDS011;1649;53.672;10.064;2022-08-14T04:57:58;8.33;;;6.30;;
3274;SDS011;1649;53.672;10.064;2022-08-14T05:00:24;9.73;;;6.57;;
3274;SDS011;1649;53.672;10.064;2022-08-14T05:02:51;10.67;;;6.47;;
3274;SDS011;1649;53.672;10.064;2022-08-14T05:05:16;7.13;;;5.83;;
3274;SDS011;1649;53.672;10.064;2022-08-14T05:07:44;9.80;;;6.30;;
3274;SDS011;1649;53.672;10.064;2022-08-14T05:10:10;10.03;;;6.23;;
3274;SDS011;1649;53.672;10.064;2022-08-14T05:12:36;7.30;;;6.20;;
3274;SDS011;1649;53.672;10.064;2022-08-14T05:15:03;9.60;;;6.20;;
3274;SDS011;1649;53.672;10.064;2022-08-14T05:17:31;9.90;;;5.90;;
3274;SDS011;1649;53.672;10.064;2022-08-14T05:19:57;10.80;;;6.50;;
3274;SDS011;1649;53.672;10.064;2022-08-14T05:22:22;10.20;;;6.10;;
3274;SDS011;1649;53.672;10.064;2022-08-14T05:24:48;7.00;;;5.50;;
3274;SDS011;1649;53.672;10.064;2022-08-14T05:27:14;8.67;;;5.80;;
3274;SDS011;1649;53.672;10.064;2022-08-14T05:29:44;8.10;;;6.03;;
3274;SDS011;1649;53.672;10.064;2022-08-14T05:32:12;9.93;;;5.60;;
3274;SDS011;1649;53.672;10.064;2022-08-14T05:34:38;8.10;;;5.65;;
3274;SDS011;1649;53.672;10.064;2022-08-14T05:37:04;7.80;;;5.20;;
3274;SDS011;1649;53.672;10.064;2022-08-14T05:39:29;9.73;;;5.70;;
3274;SDS011;1649;53.672;10.064;2022-08-14T05:41:55;9.63;;;6.10;;
3274;SDS011;1649;53.672;10.064;2022-08-14T05:44:21;9.93;;;5.60;;
3274;SDS011;1649;53.672;10.064;2022-08-14T05:46:46;10.00;;;5.70;;
3274;SDS011;1649;53.672;10.064;2022-08-14T05:49:12;8.13;;;5.60;;
3274;SDS011;1649;53.672;10.064;2022-08-14T05:51:38;6.80;;;5.20;;
3274;SDS011;1649;53.672;10.064;2022-08-14T05:54:05;7.80;;;5.87;;
3274;SDS011;1649;53.672;10.064;2022-08-14T05:56:30;8.00;;;5.43;;
3274;SDS011;1649;53.672;10.064;2022-08-14T05:58:56;8.30;;;6.03;;
3274;SDS011;1649;53.672;10.064;2022-08-14T06:01:21;9.23;;;5.57;;
3274;SDS011;1649;53.672;10.064;2022-08-14T06:03:47;7.77;;;5.50;;
3274;SDS011;1649;53.672;10.064;2022-08-14T06:06:12;6.93;;;5.17;;
3274;SDS011;1649;53.672;10.064;2022-08-14T06:08:38;8.77;;;5.10;;
3274;SDS011;1649;53.672;10.064;2022-08-14T06:11:04;7.47;;;4.93;;
3274;SDS011;1649;53.672;10.064;2022-08-14T06:13:32;7.33;;;5.20;;
3274;SDS011;1649;53.672;10.064;2022-08-14T06:15:59;7.97;;;5.00;;
3274;SDS011;1649;53.672;10.064;2022-08-14T06:18:25;10.80;;;5.20;;
3274;SDS011;1649;53.672;10.064;2022-08-14T06:20:50;7.17;;;4.97;;
3274;SDS011;1649;53.672;10.064;2022-08-14T06:23:17;7.20;;;5.00;;
3274;SDS011;1649;53.672;10.064;2022-08-14T06:25:43;7.20;;;4.70;;
3274;SDS011;1649;53.672;10.064;2022-08-14T06:28:18;9.57;;;6.77;;
3274;SDS011;1649;53.672;10.064;2022-08-14T06:30:45;9.90;;;4.97;;
3274;SDS011;1649;53.672;10.064;2022-08-14T06:33:11;7.20;;;5.23;;
3274;SDS011;1649;53.672;10.064;2022-08-14T06:35:38;8.10;;;4.80;;
3274;SDS011;1649;53.672;10.064;2022-08-14T06:38:04;6.30;;;4.53;;
3274;SDS011;1649;53.672;10.064;2022-08-14T06:40:31;6.60;;;4.90;;
3274;SDS011;1649;53.672;10.064;2022-08-14T06:43:03;6.93;;;4.70;;
3274;SDS011;1649;53.672;10.064;2022-08-14T06:45:33;7.60;;;4.30;;
3274;SDS011;1649;53.672;10.064;2022-08-14T06:48:00;9.73;;;5.40;;
3274;SDS011;1649;53.672;10.064;2022-08-14T06:50:27;10.00;;;4.90;;
3274;SDS011;1649;53.672;10.064;2022-08-14T06:52:54;7.90;;;4.60;;
3274;SDS011;1649;53.672;10.064;2022-08-14T06:55:20;7.10;;;4.70;;
3274;SDS011;1649;53.672;10.064;2022-08-14T06:57:47;7.00;;;4.90;;
3274;SDS011;1649;53.672;10.064;2022-08-14T07:00:18;8.30;;;4.57;;
3274;SDS011;1649;53.672;10.064;2022-08-14T07:02:48;8.50;;;4.67;;
3274;SDS011;1649;53.672;10.064;2022-08-14T07:05:33;7.50;;;4.77;;
3274;SDS011;1649;53.672;10.064;2022-08-14T07:08:13;7.17;;;4.40;;
3274;SDS011;1649;53.672;10.064;2022-08-14T07:10:40;8.93;;;4.50;;
3274;SDS011;1649;53.672;10.064;2022-08-14T07:13:08;5.43;;;3.90;;
3274;SDS011;1649;53.672;10.064;2022-08-14T07:15:34;8.53;;;4.27;;
3274;SDS011;1649;53.672;10.064;2022-08-14T07:18:00;6.67;;;3.80;;
3274;SDS011;1649;53.672;10.064;2022-08-14T07:20:27;7.27;;;4.10;;
3274;SDS011;1649;53.672;10.064;2022-08-14T07:22:53;6.33;;;4.10;;
3274;SDS011;1649;53.672;10.064;2022-08-14T07:25:24;7.73;;;4.07;;
3274;SDS011;1649;53.672;10.064;2022-08-14T07:27:50;5.90;;;3.53;;
3274;SDS011;1649;53.672;10.064;2022-08-14T07:30:15;7.50;;;3.97;;
3274;SDS011;1649;53.672;10.064;2022-08-14T07:32:41;7.07;;;4.47;;
3274;SDS011;1649;53.672;10.064;2022-08-14T07:35:07;5.47;;;4.30;;
3274;SDS011;1649;53.672;10.064;2022-08-14T07:37:32;6.60;;;3.93;;
3274;SDS011;1649;53.672;10.064;2022-08-14T07:39:58;5.43;;;3.60;;
3274;SDS011;1649;53.672;10.064;2022-08-14T07:42:24;8.90;;;3.90;;
3274;SDS011;1649;53.672;10.064;2022-08-14T07:44:50;8.30;;;4.00;;
3274;SDS011;1649;53.672;10.064;2022-08-14T07:47:16;9.90;;;4.00;;
3274;SDS011;1649;53.672;10.064;2022-08-14T07:49:41;10.23;;;4.33;;
3274;SDS011;1649;53.672;10.064;2022-08-14T07:52:18;8.70;;;4.13;;
3274;SDS011;1649;53.672;10.064;2022-08-14T07:54:43;6.53;;;3.97;;
3274;SDS011;1649;53.672;10.064;2022-08-14T07:57:09;6.03;;;3.67;;
3274;SDS011;1649;53.672;10.064;2022-08-14T07:59:36;9.73;;;4.00;;
3274;SDS011;1649;53.672;10.064;2022-08-14T08:02:02;6.93;;;4.20;;
3274;SDS011;1649;53.672;10.064;2022-08-14T08:04:28;6.07;;;4.10;;
3274;SDS011;1649;53.672;10.064;2022-08-14T08:06:55;6.90;;;4.10;;
3274;SDS011;1649;53.672;10.064;2022-08-14T08:09:22;10.33;;;4.00;;
3274;SDS011;1649;53.672;10.064;2022-08-14T08:11:50;5.87;;;3.90;;
3274;SDS011;1649;53.672;10.064;2022-08-14T08:14:16;8.20;;;3.60;;
3274;SDS011;1649;53.672;10.064;2022-08-14T08:16:44;7.67;;;3.80;;
3274;SDS011;1649;53.672;10.064;2022-08-14T08:19:11;6.67;;;3.70;;
3274;SDS011;1649;53.672;10.064;2022-08-14T08:21:40;5.10;;;3.60;;
3274;SDS011;1649;53.672;10.064;2022-08-14T08:24:05;5.60;;;3.63;;
3274;SDS011;1649;53.672;10.064;2022-08-14T08:26:31;7.40;;;4.00;;
3274;SDS011;1649;53.672;10.064;2022-08-14T08:28:57;4.97;;;3.67;;
3274;SDS011;1649;53.672;10.064;2022-08-14T08:31:24;5.77;;;3.70;;
3274;SDS011;1649;53.672;10.064;2022-08-14T08:33:50;5.60;;;3.70;;
3274;SDS011;1649;53.672;10.064;2022-08-14T08:36:16;6.13;;;3.57;;
3274;SDS011;1649;53.672;10.064;2022-08-14T08:38:42;6.20;;;3.47;;
3274;SDS011;1649;53.672;10.064;2022-08-14T08:41:09;6.10;;;3.13;;
3274;SDS011;1649;53.672;10.064;2022-08-14T08:43:35;5.97;;;3.70;;
3274;SDS011;1649;53.672;10.064;2022-08-14T08:46:06;6.37;;;3.80;;
3274;SDS011;1649;53.672;10.064;2022-08-14T08:48:44;6.63;;;3.60;;
3274;SDS011;1649;53.672;10.064;2022-08-14T08:51:22;5.50;;;4.20;;
3274;SDS011;1649;53.672;10.064;2022-08-14T08:54:03;6.07;;;4.57;;
3274;SDS011;1649;53.672;10.064;2022-08-14T08:56:46;5.83;;;4.00;;
3274;SDS011;1649;53.672;10.064;2022-08-14T08:59:15;6.10;;;4.03;;
3274;SDS011;1649;53.672;10.064;2022-08-14T09:01:59;7.30;;;4.27;;
3274;SDS011;1649;53.672;10.064;2022-08-14T09:04:26;7.10;;;4.37;;
3274;SDS011;1649;53.672;10.064;2022-08-14T09:06:54;6.53;;;4.33;;
3274;SDS011;1649;53.672;10.064;2022-08-14T09:09:21;8.47;;;3.97;;
3274;SDS011;1649;53.672;10.064;2022-08-14T09:11:48;5.37;;;4.00;;
3274;SDS011;1649;53.672;10.064;2022-08-14T09:14:15;8.07;;;4.27;;
3274;SDS011;1649;53.672;10.064;2022-08-14T09:16:41;5.80;;;4.30;;
3274;SDS011;1649;53.672;10.064;2022-08-14T09:19:07;9.40;;;4.80;;
3274;SDS011;1649;53.672;10.064;2022-08-14T09:21:34;7.93;;;4.37;;
3274;SDS011;1649;53.672;10.064;2022-08-14T09:24:03;5.73;;;4.97;;
3274;SDS011;1649;53.672;10.064;2022-08-14T09:26:29;5.63;;;4.13;;
3274;SDS011;1649;53.672;10.064;2022-08-14T09:28:55;7.07;;;4.83;;
3274;SDS011;1649;53.672;10.064;2022-08-14T09:31:20;6.47;;;4.80;;
3274;SDS011;1649;53.672;10.064;2022-08-14T09:39:35;10.50;;;5.30;;
3274;SDS011;1649;53.672;10.064;2022-08-14T09:42:27;5.70;;;5.03;;
3274;SDS011;1649;53.672;10.064;2022-08-14T09:45:24;6.93;;;5.40;;
3274;SDS011;1649;53.672;10.064;2022-08-14T09:47:56;6.90;;;5.20;;
3274;SDS011;1649;53.672;10.064;2022-08-14T09:50:24;6.20;;;5.40;;
3274;SDS011;1649;53.672;10.064;2022-08-14T09:53:01;8.37;;;5.60;;
3274;SDS011;1649;53.672;10.064;2022-08-14T09:55:29;6.47;;;5.30;;
3274;SDS011;1649;53.672;10.064;2022-08-14T09:58:06;6.50;;;5.20;;
3274;SDS011;1649;53.672;10.064;2022-08-14T10:00:42;8.00;;;5.43;;
3274;SDS011;1649;53.672;10.064;2022-08-14T10:03:25;7.53;;;4.93;;
3274;SDS011;1649;53.672;10.064;2022-08-14T10:06:02;8.00;;;5.70;;
3274;SDS011;1649;53.672;10.064;2022-08-14T10:08:40;6.90;;;5.37;;
3274;SDS011;1649;53.672;10.064;2022-08-14T10:11:15;8.73;;;5.80;;
3274;SDS011;1649;53.672;10.064;2022-08-14T10:13:44;8.63;;;6.10;;
3274;SDS011;1649;53.672;10.064;2022-08-14T10:16:10;9.87;;;5.97;;
3274;SDS011;1649;53.672;10.064;2022-08-14T10:18:36;8.13;;;6.30;;
3274;SDS011;1649;53.672;10.064;2022-08-14T10:21:03;6.77;;;5.73;;
3274;SDS011;1649;53.672;10.064;2022-08-14T10:26:26;11.93;;;5.77;;
3274;SDS011;1649;53.672;10.064;2022-08-14T10:28:52;9.90;;;5.70;;
3274;SDS011;1649;53.672;10.064;2022-08-14T10:31:19;7.30;;;5.53;;
3274;SDS011;1649;53.672;10.064;2022-08-14T10:33:55;7.20;;;5.90;;
3274;SDS011;1649;53.672;10.064;2022-08-14T10:36:27;8.47;;;5.87;;
3274;SDS011;1649;53.672;10.064;2022-08-14T10:38:59;7.10;;;5.60;;
3274;SDS011;1649;53.672;10.064;2022-08-14T10:41:35;8.53;;;6.00;;
3274;SDS011;1649;53.672;10.064;2022-08-14T10:44:04;7.93;;;6.07;;
3274;SDS011;1649;53.672;10.064;2022-08-14T10:46:45;6.33;;;5.37;;
3274;SDS011;1649;53.672;10.064;2022-08-14T10:49:20;6.33;;;5.60;;
3274;SDS011;1649;53.672;10.064;2022-08-14T10:52:01;8.13;;;6.30;;
3274;SDS011;1649;53.672;10.064;2022-08-14T10:54:36;7.00;;;5.67;;
3274;SDS011;1649;53.672;10.064;2022-08-14T10:59:54;9.10;;;6.00;;
3274;SDS011;1649;53.672;10.064;2022-08-14T11:02:28;10.93;;;6.83;;
3274;SDS011;1649;53.672;10.064;2022-08-14T11:07:24;8.40;;;6.10;;
3274;SDS011;1649;53.672;10.064;2022-08-14T11:09:56;9.80;;;6.50;;
3274;SDS011;1649;53.672;10.064;2022-08-14T11:12:24;9.00;;;7.13;;
3274;SDS011;1649;53.672;10.064;2022-08-14T11:14:52;10.50;;;6.40;;
3274;SDS011;1649;53.672;10.064;2022-08-14T11:17:25;7.90;;;6.40;;
3274;SDS011;1649;53.672;10.064;2022-08-14T11:19:52;13.40;;;6.60;;
3274;SDS011;1649;53.672;10.064;2022-08-14T11:22:23;7.37;;;6.40;;
3274;SDS011;1649;53.672;10.064;2022-08-14T11:24:51;12.10;;;6.20;;
3274;SDS011;1649;53.672;10.064;2022-08-14T11:27:20;7.90;;;6.60;;
3274;SDS011;1649;53.672;10.064;2022-08-14T11:29:49;9.63;;;7.07;;
3274;SDS011;1649;53.672;10.064;2022-08-14T11:32:15;7.80;;;7.00;;
3274;SDS011;1649;53.672;10.064;2022-08-14T11:34:43;6.90;;;6.20;;
3274;SDS011;1649;53.672;10.064;2022-08-14T11:37:10;9.50;;;7.03;;
3274;SDS011;1649;53.672;10.064;2022-08-14T11:39:36;10.00;;;6.60;;
3274;SDS011;1649;53.672;10.064;2022-08-14T11:42:03;10.03;;;7.23;;
3274;SDS011;1649;53.672;10.064;2022-08-14T11:44:30;10.33;;;6.93;;
3274;SDS011;1649;53.672;10.064;2022-08-14T11:46:55;9.00;;;7.20;;
3274;SDS011;1649;53.672;10.064;2022-08-14T11:49:24;8.33;;;6.97;;
3274;SDS011;1649;53.672;10.064;2022-08-14T11:51:52;12.30;;;7.30;;
3274;SDS011;1649;53.672;10.064;2022-08-14T11:54:21;7.53;;;6.43;;
3274;SDS011;1649;53.672;10.064;2022-08-14T11:56:47;12.27;;;7.50;;
3274;SDS011;1649;53.672;10.064;2022-08-14T11:59:17;8.50;;;7.20;;
3274;SDS011;1649;53.672;10.064;2022-08-14T12:01:45;7.90;;;6.80;;
3274;SDS011;1649;53.672;10.064;2022-08-14T12:04:14;8.10;;;6.60;;
3274;SDS011;1649;53.672;10.064;2022-08-14T12:06:50;7.93;;;6.90;;
3274;SDS011;1649;53.672;10.064;2022-08-14T12:11:54;8.00;;;6.80;;
3274;SDS011;1649;53.672;10.064;2022-08-14T12:14:20;12.27;;;7.80;;
3274;SDS011;1649;53.672;10.064;2022-08-14T12:16:56;10.23;;;7.60;;
3274;SDS011;1649;53.672;10.064;2022-08-14T12:19:24;8.60;;;7.10;;
3274;SDS011;1649;53.672;10.064;2022-08-14T12:21:51;10.03;;;7.13;;
3274;SDS011;1649;53.672;10.064;2022-08-14T12:24:17;8.50;;;7.37;;
3274;SDS011;1649;53.672;10.064;2022-08-14T12:26:54;12.07;;;7.10;;
3274;SDS011;1649;53.672;10.064;2022-08-14T12:29:20;8.47;;;7.40;;
3274;SDS011;1649;53.672;10.064;2022-08-14T12:31:46;8.30;;;7.40;;
3274;SDS011;1649;53.672;10.064;2022-08-14T12:34:22;9.33;;;7.10;;
3274;SDS011;1649;53.672;10.064;2022-08-14T12:39:29;8.03;;;7.23;;
3274;SDS011;1649;53.672;10.064;2022-08-14T12:41:55;9.30;;;7.47;;
3274;SDS011;1649;53.672;10.064;2022-08-14T12:44:31;8.10;;;7.27;;
3274;SDS011;1649;53.672;10.064;2022-08-14T12:47:11;10.40;;;7.57;;
3274;SDS011;1649;53.672;10.064;2022-08-14T12:49:49;13.40;;;7.30;;
3274;SDS011;1649;53.672;10.064;2022-08-14T12:52:25;9.77;;;7.60;;
3274;SDS011;1649;53.672;10.064;2022-08-14T12:55:01;9.70;;;7.97;;
3274;SDS011;1649;53.672;10.064;2022-08-14T12:57:33;9.53;;;7.20;;
3274;SDS011;1649;53.672;10.064;2022-08-14T13:00:04;8.33;;;7.40;;
3274;SDS011;1649;53.672;10.064;2022-08-14T13:02:37;8.63;;;7.73;;
3274;SDS011;1649;53.672;10.064;2022-08-14T13:05:03;11.77;;;7.53;;
3274;SDS011;1649;53.672;10.064;2022-08-14T13:07:29;10.00;;;7.53;;
3274;SDS011;1649;53.672;10.064;2022-08-14T13:09:55;10.27;;;8.10;;
3274;SDS011;1649;53.672;10.064;2022-08-14T13:12:23;11.03;;;8.60;;
3274;SDS011;1649;53.672;10.064;2022-08-14T13:14:54;12.33;;;7.70;;
3274;SDS011;1649;53.672;10.064;2022-08-14T13:17:23;10.53;;;8.27;;
3274;SDS011;1649;53.672;10.064;2022-08-14T13:19:49;10.77;;;8.53;;
3274;SDS011;1649;53.672;10.064;2022-08-14T13:22:18;8.50;;;7.60;;
3274;SDS011;1649;53.672;10.064;2022-08-14T13:24:50;8.80;;;7.87;;
3274;SDS011;1649;53.672;10.064;2022-08-14T13:27:18;9.83;;;7.63;;
3274;SDS011;1649;53.672;10.064;2022-08-14T13:29:46;9.73;;;8.73;;
3274;SDS011;1649;53.672;10.064;2022-08-14T13:32:15;9.17;;;8.17;;
3274;SDS011;1649;53.672;10.064;2022-08-14T13:34:43;9.33;;;8.33;;
3274;SDS011;1649;53.672;10.064;2022-08-14T13:37:13;9.40;;;7.67;;
3274;SDS011;1649;53.672;10.064;2022-08-14T13:39:39;12.40;;;6.17;;
3274;SDS011;1649;53.672;10.064;2022-08-14T13:42:15;10.47;;;7.07;;
3274;SDS011;1649;53.672;10.064;2022-08-14T13:44:42;8.40;;;6.60;;
3274;SDS011;1649;53.672;10.064;2022-08-14T13:47:12;7.60;;;6.70;;
3274;SDS011;1649;53.672;10.064;2022-08-14T13:49:38;10.97;;;7.07;;
3274;SDS011;1649;53.672;10.064;2022-08-14T13:52:05;11.87;;;7.07;;
3274;SDS011;1649;53.672;10.064;2022-08-14T13:54:35;12.37;;;7.57;;
3274;SDS011;1649;53.672;10.064;2022-08-14T13:57:05;9.10;;;7.33;;
3274;SDS011;1649;53.672;10.064;2022-08-14T13:59:34;8.23;;;7.10;;
3274;SDS011;1649;53.672;10.064;2022-08-14T14:02:03;9.83;;;7.00;;
3274;SDS011;1649;53.672;10.064;2022-08-14T14:04:29;10.90;;;7.30;;
3274;SDS011;1649;53.672;10.064;2022-08-14T14:06:55;10.10;;;8.07;;
3274;SDS011;1649;53.672;10.064;2022-08-14T14:09:28;8.70;;;7.30;;
3274;SDS011;1649;53.672;10.064;2022-08-14T14:11:56;12.87;;;7.23;;
3274;SDS011;1649;53.672;10.064;2022-08-14T14:14:23;8.37;;;7.33;;
3274;SDS011;1649;53.672;10.064;2022-08-14T14:16:49;9.30;;;6.87;;
3274;SDS011;1649;53.672;10.064;2022-08-14T14:19:16;8.20;;;7.37;;
3274;SDS011;1649;53.672;10.064;2022-08-14T14:21:43;8.87;;;7.50;;
3274;SDS011;1649;53.672;10.064;2022-08-14T14:24:09;9.47;;;7.70;;
3274;SDS011;1649;53.672;10.064;2022-08-14T14:26:35;7.93;;;7.00;;
3274;SDS011;1649;53.672;10.064;2022-08-14T14:29:02;8.33;;;7.30;;
3274;SDS011;1649;53.672;10.064;2022-08-14T14:31:30;8.70;;;7.70;;
3274;SDS011;1649;53.672;10.064;2022-08-14T14:34:02;9.60;;;7.30;;
3274;SDS011;1649;53.672;10.064;2022-08-14T14:36:29;8.70;;;7.90;;
3274;SDS011;1649;53.672;10.064;2022-08-14T14:38:57;11.43;;;7.17;;
3274;SDS011;1649;53.672;10.064;2022-08-14T14:41:26;8.90;;;7.37;;
3274;SDS011;1649;53.672;10.064;2022-08-14T14:43:53;11.00;;;7.43;;
3274;SDS011;1649;53.672;10.064;2022-08-14T14:46:21;9.77;;;7.37;;
3274;SDS011;1649;53.672;10.064;2022-08-14T14:48:47;10.00;;;6.97;;
3274;SDS011;1649;53.672;10.064;2022-08-14T14:51:14;9.90;;;7.20;;
3274;SDS011;1649;53.672;10.064;2022-08-14T14:53:41;12.80;;;7.33;;
3274;SDS011;1649;53.672;10.064;2022-08-14T14:56:08;15.80;;;6.37;;
3274;SDS011;1649;53.672;10.064;2022-08-14T14:58:37;11.23;;;7.00;;
3274;SDS011;1649;53.672;10.064;2022-08-14T15:01:05;9.10;;;6.17;;
3274;SDS011;1649;53.672;10.064;2022-08-14T15:03:35;7.83;;;6.40;;
3274;SDS011;1649;53.672;10.064;2022-08-14T15:06:03;9.30;;;6.67;;
3274;SDS011;1649;53.672;10.064;2022-08-14T15:08:29;9.43;;;6.20;;
3274;SDS011;1649;53.672;10.064;2022-08-14T15:10:56;10.03;;;6.60;;
3274;SDS011;1649;53.672;10.064;2022-08-14T15:13:23;7.90;;;7.07;;
3274;SDS011;1649;53.672;10.064;2022-08-14T15:15:52;13.37;;;8.80;;
3274;SDS011;1649;53.672;10.064;2022-08-14T15:18:19;16.90;;;6.13;;
3274;SDS011;1649;53.672;10.064;2022-08-14T15:20:45;9.43;;;5.90;;
3274;SDS011;1649;53.672;10.064;2022-08-14T15:23:14;8.60;;;5.70;;
3274;SDS011;1649;53.672;10.064;2022-08-14T15:25:40;7.00;;;5.80;;